sensor_id;sensor_type;location;lat;lon;timestamp;pressure;altitude;pressure_sealevel;temperature;humidity
68628;BME280;55611;48.602;9.490;2023-12-20T00:00:13;96890;;;11.1;63
68628;BME280;55611;48.602;9.490;2023-12-20T00:02:44;96900;;;11;63
68628;BME280;55611;48.602;9.490;2023-12-20T00:05:15;96890;;;11.1;63
68628;BME280;55611;48.602;9.490;2023-12-20T00:07:46;96900;;;11.2;63
68628;BME280;55611;48.602;9.490;2023-12-20T00:10:16;96890;;;11.2;63
68628;BME280;55611;48.602;9.490;2023-12-20T00:12:47;96890;;;11.2;63
68628;BME280;55611;48.602;9.490;2023-12-20T00:15:18;96890;;;11.3;63
68628;BME280;55611;48.602;9.490;2023-12-20T00:17:49;96880;;;11.3;62.5
68628;BME280;55611;48.602;9.490;2023-12-20T00:20:19;96880;;;11.3;62.5
68628;BME280;55611;48.602;9.490;2023-12-20T00:22:50;96850;;;11.3;62.5
68628;BME280;55611;48.602;9.490;2023-12-20T00:25:21;96850;;;11.2;62.5
68628;BME280;55611;48.602;9.490;2023-12-20T00:27:52;96850;;;11.2;62.5
68628;BME280;55611;48.602;9.490;2023-12-20T00:30:23;96850;;;11.2;63
68628;BME280;55611;48.602;9.490;2023-12-20T00:32:53;96850;;;11.3;63
68628;BME280;55611;48.602;9.490;2023-12-20T00:35:24;96830;;;11.2;63
68628;BME280;55611;48.602;9.490;2023-12-20T00:37:55;96820;;;11.1;63
68628;BME280;55611;48.602;9.490;2023-12-20T00:40:26;96820;;;11.1;63
68628;BME280;55611;48.602;9.490;2023-12-20T00:42:56;96810;;;11.1;63
68628;BME280;55611;48.602;9.490;2023-12-20T00:45:27;96820;;;11.1;63
68628;BME280;55611;48.602;9.490;2023-12-20T00:47:58;96820;;;11.1;63
68628;BME280;55611;48.602;9.490;2023-12-20T00:50:29;96820;;;11.2;62.5
68628;BME280;55611;48.602;9.490;2023-12-20T00:52:59;96810;;;11.1;62.5
68628;BME280;55611;48.602;9.490;2023-12-20T00:55:30;96810;;;11;63
68628;BME280;55611;48.602;9.490;2023-12-20T00:58:01;96820;;;11.1;63
68628;BME280;55611;48.602;9.490;2023-12-20T01:00:32;96810;;;11.1;63
68628;BME280;55611;48.602;9.490;2023-12-20T01:03:03;96800;;;11.2;63
68628;BME280;55611;48.602;9.490;2023-12-20T01:05:33;96800;;;11.3;63
68628;BME280;55611;48.602;9.490;2023-12-20T01:08:04;96800;;;11.3;63
68628;BME280;55611;48.602;9.490;2023-12-20T01:10:35;96810;;;11.3;63
68628;BME280;55611;48.602;9.490;2023-12-20T01:13:06;96810;;;11.3;63
68628;BME280;55611;48.602;9.490;2023-12-20T01:15:36;96820;;;11.4;63
68628;BME280;55611;48.602;9.490;2023-12-20T01:18:07;96810;;;11.5;63
68628;BME280;55611;48.602;9.490;2023-12-20T01:20:38;96820;;;11.4;63
68628;BME280;55611;48.602;9.490;2023-12-20T01:23:09;96830;;;11.4;63
68628;BME280;55611;48.602;9.490;2023-12-20T01:25:40;96830;;;11.4;63
68628;BME280;55611;48.602;9.490;2023-12-20T01:28:10;96840;;;11.3;63
68628;BME280;55611;48.602;9.490;2023-12-20T01:30:41;96830;;;11.2;63
68628;BME280;55611;48.602;9.490;2023-12-20T01:33:12;96840;;;11;63
68628;BME280;55611;48.602;9.490;2023-12-20T01:35:43;96840;;;11;63
68628;BME280;55611;48.602;9.490;2023-12-20T01:38:13;96850;;;10.8;63
68628;BME280;55611;48.602;9.490;2023-12-20T01:40:44;96850;;;10.7;63
68628;BME280;55611;48.602;9.490;2023-12-20T01:43:15;96850;;;10.5;63
68628;BME280;55611;48.602;9.490;2023-12-20T01:45:46;96850;;;10.1;63
68628;BME280;55611;48.602;9.490;2023-12-20T01:48:17;96870;;;10;63
68628;BME280;55611;48.602;9.490;2023-12-20T01:50:47;96880;;;9.9;63
68628;BME280;55611;48.602;9.490;2023-12-20T01:53:19;96880;;;9.7;63
68628;BME280;55611;48.602;9.490;2023-12-20T01:55:49;96880;;;9.5;63
68628;BME280;55611;48.602;9.490;2023-12-20T01:58:20;96880;;;9.3;63
68628;BME280;55611;48.602;9.490;2023-12-20T02:00:50;96880;;;9.2;63
68628;BME280;55611;48.602;9.490;2023-12-20T02:03:21;96870;;;9.1;63
68628;BME280;55611;48.602;9.490;2023-12-20T02:05:52;96880;;;9;63
68628;BME280;55611;48.602;9.490;2023-12-20T02:08:23;96860;;;8.8;63.5
68628;BME280;55611;48.602;9.490;2023-12-20T02:10:54;96870;;;8.7;63.5
68628;BME280;55611;48.602;9.490;2023-12-20T02:13:24;96860;;;8.6;63.5
68628;BME280;55611;48.602;9.490;2023-12-20T02:15:55;96860;;;8.6;63.5
68628;BME280;55611;48.602;9.490;2023-12-20T02:18:26;96860;;;8.6;63.5
68628;BME280;55611;48.602;9.490;2023-12-20T02:20:57;96850;;;8.6;63.5
68628;BME280;55611;48.602;9.490;2023-12-20T02:23:27;96850;;;8.6;63.5
68628;BME280;55611;48.602;9.490;2023-12-20T02:25:58;96850;;;8.6;63.5
68628;BME280;55611;48.602;9.490;2023-12-20T02:28:29;96840;;;8.6;63.5
68628;BME280;55611;48.602;9.490;2023-12-20T02:31:00;96860;;;8.6;63.5
68628;BME280;55611;48.602;9.490;2023-12-20T02:33:30;96840;;;8.7;63.5
68628;BME280;55611;48.602;9.490;2023-12-20T02:36:01;96840;;;8.7;63.5
68628;BME280;55611;48.602;9.490;2023-12-20T02:38:32;96860;;;8.8;63.5
68628;BME280;55611;48.602;9.490;2023-12-20T02:41:03;96840;;;8.7;63.5
68628;BME280;55611;48.602;9.490;2023-12-20T02:43:34;96860;;;8.7;63.5
68628;BME280;55611;48.602;9.490;2023-12-20T02:46:04;96850;;;8.8;63.5
68628;BME280;55611;48.602;9.490;2023-12-20T02:48:35;96840;;;8.8;63
68628;BME280;55611;48.602;9.490;2023-12-20T02:51:06;96850;;;8.8;63
68628;BME280;55611;48.602;9.490;2023-12-20T02:53:37;96840;;;8.8;63
68628;BME280;55611;48.602;9.490;2023-12-20T02:56:07;96850;;;8.8;63
68628;BME280;55611;48.602;9.490;2023-12-20T02:58:38;96850;;;8.7;63
68628;BME280;55611;48.602;9.490;2023-12-20T03:01:09;96850;;;8.8;63
68628;BME280;55611;48.602;9.490;2023-12-20T03:03:40;96840;;;8.8;63
68628;BME280;55611;48.602;9.490;2023-12-20T03:06:11;96850;;;8.9;63
68628;BME280;55611;48.602;9.490;2023-12-20T03:08:41;96850;;;8.8;63
68628;BME280;55611;48.602;9.490;2023-12-20T03:11:12;96860;;;8.8;63
68628;BME280;55611;48.602;9.490;2023-12-20T03:13:43;96850;;;8.9;63
68628;BME280;55611;48.602;9.490;2023-12-20T03:16:14;96850;;;9.1;63
68628;BME280;55611;48.602;9.490;2023-12-20T03:18:44;96850;;;9.2;63
68628;BME280;55611;48.602;9.490;2023-12-20T03:21:15;96850;;;9.2;62.5
68628;BME280;55611;48.602;9.490;2023-12-20T03:23:46;96850;;;9.2;62.5
68628;BME280;55611;48.602;9.490;2023-12-20T03:26:17;96850;;;9.2;62.5
68628;BME280;55611;48.602;9.490;2023-12-20T03:28:47;96850;;;9.2;62.5
68628;BME280;55611;48.602;9.490;2023-12-20T03:31:18;96870;;;9.2;62.5
68628;BME280;55611;48.602;9.490;2023-12-20T03:33:49;96860;;;9.2;62.5
68628;BME280;55611;48.602;9.490;2023-12-20T03:36:20;96860;;;9.2;62.5
68628;BME280;55611;48.602;9.490;2023-12-20T03:38:51;96860;;;9.2;62.5
68628;BME280;55611;48.602;9.490;2023-12-20T03:41:21;96870;;;9.2;62.5
68628;BME280;55611;48.602;9.490;2023-12-20T03:43:52;96870;;;9.2;62.5
68628;BME280;55611;48.602;9.490;2023-12-20T03:46:25;96870;;;9.1;62.5
68628;BME280;55611;48.602;9.490;2023-12-20T03:48:54;96860;;;9;62.5
68628;BME280;55611;48.602;9.490;2023-12-20T03:51:24;96870;;;9.1;62.5
68628;BME280;55611;48.602;9.490;2023-12-20T03:53:55;96870;;;8.9;63
68628;BME280;55611;48.602;9.490;2023-12-20T03:56:26;96880;;;8.8;63
68628;BME280;55611;48.602;9.490;2023-12-20T03:58:57;96880;;;8.8;63
68628;BME280;55611;48.602;9.490;2023-12-20T04:01:28;96880;;;8.8;63
68628;BME280;55611;48.602;9.490;2023-12-20T04:03:58;96870;;;8.8;63
68628;BME280;55611;48.602;9.490;2023-12-20T04:06:29;96880;;;8.8;62.5
68628;BME280;55611;48.602;9.490;2023-12-20T04:09:00;96890;;;8.8;62.5
68628;BME280;55611;48.602;9.490;2023-12-20T04:11:31;96890;;;8.8;62.5
68628;BME280;55611;48.602;9.490;2023-12-20T04:14:01;96890;;;8.7;62.5
68628;BME280;55611;48.602;9.490;2023-12-20T04:16:32;96900;;;8.7;62.5
68628;BME280;55611;48.602;9.490;2023-12-20T04:19:03;96900;;;8.6;62.5
68628;BME280;55611;48.602;9.490;2023-12-20T04:21:34;96890;;;8.5;62.5
68628;BME280;55611;48.602;9.490;2023-12-20T04:24:05;96900;;;8.4;63
68628;BME280;55611;48.602;9.490;2023-12-20T04:26:35;96900;;;8.4;63
68628;BME280;55611;48.602;9.490;2023-12-20T04:29:06;96900;;;8.4;63
68628;BME280;55611;48.602;9.490;2023-12-20T04:31:37;96910;;;8.4;63
68628;BME280;55611;48.602;9.490;2023-12-20T04:34:08;96910;;;8.4;63
68628;BME280;55611;48.602;9.490;2023-12-20T04:36:38;96900;;;8.4;63
68628;BME280;55611;48.602;9.490;2023-12-20T04:39:10;96920;;;8.4;63
68628;BME280;55611;48.602;9.490;2023-12-20T04:41:40;96910;;;8.4;62.5
68628;BME280;55611;48.602;9.490;2023-12-20T04:44:11;96910;;;8.3;63
68628;BME280;55611;48.602;9.490;2023-12-20T04:46:41;96910;;;8.3;63
68628;BME280;55611;48.602;9.490;2023-12-20T04:49:12;96900;;;8.3;63
68628;BME280;55611;48.602;9.490;2023-12-20T04:51:43;96910;;;8.3;63
68628;BME280;55611;48.602;9.490;2023-12-20T04:54:14;96910;;;8.3;63
68628;BME280;55611;48.602;9.490;2023-12-20T04:56:45;96910;;;8.3;63
68628;BME280;55611;48.602;9.490;2023-12-20T04:59:15;96930;;;8.3;63
68628;BME280;55611;48.602;9.490;2023-12-20T05:01:47;96930;;;8.4;62.5
68628;BME280;55611;48.602;9.490;2023-12-20T05:04:17;96920;;;8.4;62.5
68628;BME280;55611;48.602;9.490;2023-12-20T05:06:48;96930;;;8.4;62.5
68628;BME280;55611;48.602;9.490;2023-12-20T05:09:18;96930;;;8.4;62.5
68628;BME280;55611;48.602;9.490;2023-12-20T05:11:49;96930;;;8.4;62.5
68628;BME280;55611;48.602;9.490;2023-12-20T05:14:20;96930;;;8.5;62.5
68628;BME280;55611;48.602;9.490;2023-12-20T05:16:51;96940;;;8.5;62.5
68628;BME280;55611;48.602;9.490;2023-12-20T05:19:23;96940;;;8.4;62.5
68628;BME280;55611;48.602;9.490;2023-12-20T05:21:52;96940;;;8.5;62.5
68628;BME280;55611;48.602;9.490;2023-12-20T05:24:23;96950;;;8.5;62.5
68628;BME280;55611;48.602;9.490;2023-12-20T05:26:54;96950;;;8.5;62.5
68628;BME280;55611;48.602;9.490;2023-12-20T05:29:25;96950;;;8.6;62.5
68628;BME280;55611;48.602;9.490;2023-12-20T05:31:57;96960;;;8.6;62.5
68628;BME280;55611;48.602;9.490;2023-12-20T05:34:26;96950;;;8.6;62.5
68628;BME280;55611;48.602;9.490;2023-12-20T05:36:57;96960;;;8.7;62.5
68628;BME280;55611;48.602;9.490;2023-12-20T05:39:28;96970;;;8.7;62.5
68628;BME280;55611;48.602;9.490;2023-12-20T05:41:59;96970;;;8.6;62.5
68628;BME280;55611;48.602;9.490;2023-12-20T05:44:29;96990;;;8.6;62.5
68628;BME280;55611;48.602;9.490;2023-12-20T05:47:00;96980;;;8.6;62.5
68628;BME280;55611;48.602;9.490;2023-12-20T05:49:31;96980;;;8.5;62.5
68628;BME280;55611;48.602;9.490;2023-12-20T05:52:02;96990;;;8.5;62.5
68628;BME280;55611;48.602;9.490;2023-12-20T05:54:32;96980;;;8.5;62.5
68628;BME280;55611;48.602;9.490;2023-12-20T05:57:03;96980;;;8.6;62.5
68628;BME280;55611;48.602;9.490;2023-12-20T05:59:34;96980;;;8.6;62.5
68628;BME280;55611;48.602;9.490;2023-12-20T06:02:05;96980;;;8.6;62.5
68628;BME280;55611;48.602;9.490;2023-12-20T06:04:35;96990;;;8.6;62.5
68628;BME280;55611;48.602;9.490;2023-12-20T06:07:06;97000;;;8.6;62.5
68628;BME280;55611;48.602;9.490;2023-12-20T06:09:37;96990;;;8.6;62.5
68628;BME280;55611;48.602;9.490;2023-12-20T06:12:08;96990;;;8.6;62.5
68628;BME280;55611;48.602;9.490;2023-12-20T06:14:39;97000;;;8.6;62.5
68628;BME280;55611;48.602;9.490;2023-12-20T06:17:09;97000;;;8.6;62.5
68628;BME280;55611;48.602;9.490;2023-12-20T06:19:40;97010;;;8.6;62.5
68628;BME280;55611;48.602;9.490;2023-12-20T06:22:11;97010;;;8.6;62.5
68628;BME280;55611;48.602;9.490;2023-12-20T06:24:42;97000;;;8.6;62.5
68628;BME280;55611;48.602;9.490;2023-12-20T06:27:12;97020;;;8.6;63
68628;BME280;55611;48.602;9.490;2023-12-20T06:29:43;97020;;;8.6;63
68628;BME280;55611;48.602;9.490;2023-12-20T06:32:14;97020;;;8.6;63
68628;BME280;55611;48.602;9.490;2023-12-20T06:34:45;97020;;;8.6;63
68628;BME280;55611;48.602;9.490;2023-12-20T06:37:16;97010;;;8.6;63
68628;BME280;55611;48.602;9.490;2023-12-20T06:39:46;97010;;;8.5;63
68628;BME280;55611;48.602;9.490;2023-12-20T06:42:18;97010;;;8.6;63
68628;BME280;55611;48.602;9.490;2023-12-20T06:44:48;97010;;;8.6;63
68628;BME280;55611;48.602;9.490;2023-12-20T06:47:19;97020;;;8.6;63
68628;BME280;55611;48.602;9.490;2023-12-20T06:49:50;97030;;;8.6;63
68628;BME280;55611;48.602;9.490;2023-12-20T06:52:20;97030;;;8.6;63
68628;BME280;55611;48.602;9.490;2023-12-20T06:54:51;97030;;;8.5;63
68628;BME280;55611;48.602;9.490;2023-12-20T06:57:22;97030;;;8.6;63
68628;BME280;55611;48.602;9.490;2023-12-20T06:59:53;97030;;;8.5;63
68628;BME280;55611;48.602;9.490;2023-12-20T07:02:23;97020;;;8.6;63
68628;BME280;55611;48.602;9.490;2023-12-20T07:04:54;97040;;;8.6;63
68628;BME280;55611;48.602;9.490;2023-12-20T07:07:25;97030;;;8.6;63
68628;BME280;55611;48.602;9.490;2023-12-20T07:09:56;97040;;;8.7;63
68628;BME280;55611;48.602;9.490;2023-12-20T07:12:26;97050;;;8.8;62.5
68628;BME280;55611;48.602;9.490;2023-12-20T07:14:57;97050;;;8.8;62.5
68628;BME280;55611;48.602;9.490;2023-12-20T07:17:28;97050;;;8.8;63
68628;BME280;55611;48.602;9.490;2023-12-20T07:19:59;97050;;;8.8;63
68628;BME280;55611;48.602;9.490;2023-12-20T07:22:30;97050;;;8.8;63
68628;BME280;55611;48.602;9.490;2023-12-20T07:25:00;97060;;;8.8;63
68628;BME280;55611;48.602;9.490;2023-12-20T07:27:31;97070;;;8.8;63
68628;BME280;55611;48.602;9.490;2023-12-20T07:30:02;97070;;;8.9;63
68628;BME280;55611;48.602;9.490;2023-12-20T07:32:33;97070;;;8.8;63
68628;BME280;55611;48.602;9.490;2023-12-20T07:35:03;97070;;;8.9;63
68628;BME280;55611;48.602;9.490;2023-12-20T07:37:34;97070;;;8.8;63
68628;BME280;55611;48.602;9.490;2023-12-20T07:40:05;97070;;;8.9;63
68628;BME280;55611;48.602;9.490;2023-12-20T07:42:36;97090;;;8.9;63
68628;BME280;55611;48.602;9.490;2023-12-20T07:45:06;97080;;;8.9;63
68628;BME280;55611;48.602;9.490;2023-12-20T07:47:37;97090;;;8.9;63
68628;BME280;55611;48.602;9.490;2023-12-20T07:50:08;97080;;;9;63
68628;BME280;55611;48.602;9.490;2023-12-20T07:52:39;97090;;;9;63
68628;BME280;55611;48.602;9.490;2023-12-20T07:55:10;97100;;;9;63
68628;BME280;55611;48.602;9.490;2023-12-20T07:57:40;97100;;;9.1;63
68628;BME280;55611;48.602;9.490;2023-12-20T08:00:11;97100;;;9.1;63
68628;BME280;55611;48.602;9.490;2023-12-20T08:02:42;97100;;;9.1;63
68628;BME280;55611;48.602;9.490;2023-12-20T08:05:13;97090;;;9.1;63
68628;BME280;55611;48.602;9.490;2023-12-20T08:07:43;97100;;;9;63
68628;BME280;55611;48.602;9.490;2023-12-20T08:10:14;97100;;;9;63
68628;BME280;55611;48.602;9.490;2023-12-20T08:12:45;97110;;;9;63
68628;BME280;55611;48.602;9.490;2023-12-20T08:15:16;97120;;;9;63
68628;BME280;55611;48.602;9.490;2023-12-20T08:17:47;97120;;;9;63
68628;BME280;55611;48.602;9.490;2023-12-20T08:20:17;97120;;;9;63
68628;BME280;55611;48.602;9.490;2023-12-20T08:22:48;97130;;;8.9;63
68628;BME280;55611;48.602;9.490;2023-12-20T08:25:19;97130;;;8.9;63
68628;BME280;55611;48.602;9.490;2023-12-20T08:27:50;97130;;;8.8;63
68628;BME280;55611;48.602;9.490;2023-12-20T08:30:20;97130;;;8.8;63
68628;BME280;55611;48.602;9.490;2023-12-20T08:32:51;97130;;;8.7;63
68628;BME280;55611;48.602;9.490;2023-12-20T08:35:22;97140;;;8.8;63
68628;BME280;55611;48.602;9.490;2023-12-20T08:37:53;97130;;;8.8;63
68628;BME280;55611;48.602;9.490;2023-12-20T08:40:23;97130;;;8.8;63
68628;BME280;55611;48.602;9.490;2023-12-20T08:42:54;97130;;;8.7;63
68628;BME280;55611;48.602;9.490;2023-12-20T08:45:25;97130;;;8.8;63
68628;BME280;55611;48.602;9.490;2023-12-20T08:47:56;97140;;;8.7;63
68628;BME280;55611;48.602;9.490;2023-12-20T08:50:27;97130;;;8.7;63
68628;BME280;55611;48.602;9.490;2023-12-20T08:52:57;97140;;;8.6;63
68628;BME280;55611;48.602;9.490;2023-12-20T08:55:28;97140;;;8.6;63
68628;BME280;55611;48.602;9.490;2023-12-20T08:57:59;97140;;;8.5;63
68628;BME280;55611;48.602;9.490;2023-12-20T09:00:30;97140;;;8.5;63
68628;BME280;55611;48.602;9.490;2023-12-20T09:03:01;97150;;;8.3;63
68628;BME280;55611;48.602;9.490;2023-12-20T09:05:31;97140;;;8.3;63.5
68628;BME280;55611;48.602;9.490;2023-12-20T09:08:02;97140;;;8.2;63.5
68628;BME280;55611;48.602;9.490;2023-12-20T09:10:33;97140;;;8.2;63.5
68628;BME280;55611;48.602;9.490;2023-12-20T09:13:04;97140;;;8.1;63.5
68628;BME280;55611;48.602;9.490;2023-12-20T09:15:34;97150;;;8.1;63.5
68628;BME280;55611;48.602;9.490;2023-12-20T09:18:05;97140;;;7.9;63.5
68628;BME280;55611;48.602;9.490;2023-12-20T09:20:36;97140;;;7.9;63.5
68628;BME280;55611;48.602;9.490;2023-12-20T09:23:07;97150;;;7.8;63.5
68628;BME280;55611;48.602;9.490;2023-12-20T09:25:38;97150;;;7.7;63.5
68628;BME280;55611;48.602;9.490;2023-12-20T09:28:08;97150;;;7.6;63.5
68628;BME280;55611;48.602;9.490;2023-12-20T09:30:39;97150;;;7.5;64
68628;BME280;55611;48.602;9.490;2023-12-20T09:33:10;97160;;;7.6;63.5
68628;BME280;55611;48.602;9.490;2023-12-20T09:35:40;97160;;;7.6;63.5
68628;BME280;55611;48.602;9.490;2023-12-20T09:38:11;97170;;;7.7;63.5
68628;BME280;55611;48.602;9.490;2023-12-20T09:40:42;97170;;;7.8;63.5
68628;BME280;55611;48.602;9.490;2023-12-20T09:43:13;97170;;;7.8;63.5
68628;BME280;55611;48.602;9.490;2023-12-20T09:45:45;97160;;;7.9;63.5
68628;BME280;55611;48.602;9.490;2023-12-20T09:48:16;97150;;;7.8;63.5
68628;BME280;55611;48.602;9.490;2023-12-20T09:50:45;97150;;;7.8;63.5
68628;BME280;55611;48.602;9.490;2023-12-20T09:53:16;97160;;;7.9;63.5
68628;BME280;55611;48.602;9.490;2023-12-20T09:55:47;97160;;;8;63.5
68628;BME280;55611;48.602;9.490;2023-12-20T09:58:18;97160;;;8.1;63.5
68628;BME280;55611;48.602;9.490;2023-12-20T10:00:48;97170;;;8.1;63
68628;BME280;55611;48.602;9.490;2023-12-20T10:03:21;97170;;;8.1;63
68628;BME280;55611;48.602;9.490;2023-12-20T10:05:50;97170;;;8.1;63
68628;BME280;55611;48.602;9.490;2023-12-20T10:08:21;97170;;;8.2;63
68628;BME280;55611;48.602;9.490;2023-12-20T10:10:52;97170;;;8.2;63
68628;BME280;55611;48.602;9.490;2023-12-20T10:13:22;97160;;;8.3;63
68628;BME280;55611;48.602;9.490;2023-12-20T10:15:54;97160;;;8.4;63
68628;BME280;55611;48.602;9.490;2023-12-20T10:18:24;97160;;;8.4;63
68628;BME280;55611;48.602;9.490;2023-12-20T10:20:54;97160;;;8.4;63
68628;BME280;55611;48.602;9.490;2023-12-20T10:23:25;97160;;;8.4;63
68628;BME280;55611;48.602;9.490;2023-12-20T10:25:56;97170;;;8.3;63
68628;BME280;55611;48.602;9.490;2023-12-20T10:28:28;97170;;;8.3;63
68628;BME280;55611;48.602;9.490;2023-12-20T10:30:58;97170;;;8.3;63
68628;BME280;55611;48.602;9.490;2023-12-20T10:33:29;97160;;;8.3;63
68628;BME280;55611;48.602;9.490;2023-12-20T10:35:59;97160;;;8.3;63
68628;BME280;55611;48.602;9.490;2023-12-20T10:38:30;97160;;;8.3;63
68628;BME280;55611;48.602;9.490;2023-12-20T10:41:01;97150;;;8.3;63
68628;BME280;55611;48.602;9.490;2023-12-20T10:43:32;97140;;;8.3;63
68628;BME280;55611;48.602;9.490;2023-12-20T10:46:02;97140;;;8.3;63
68628;BME280;55611;48.602;9.490;2023-12-20T10:48:33;97150;;;8.3;63
68628;BME280;55611;48.602;9.490;2023-12-20T10:51:04;97150;;;8.3;63
68628;BME280;55611;48.602;9.490;2023-12-20T10:53:34;97140;;;8.3;63
68628;BME280;55611;48.602;9.490;2023-12-20T10:56:05;97140;;;8.4;63
68628;BME280;55611;48.602;9.490;2023-12-20T10:58:36;97140;;;8.4;63
68628;BME280;55611;48.602;9.490;2023-12-20T11:01:07;97150;;;8.5;63
68628;BME280;55611;48.602;9.490;2023-12-20T11:03:38;97140;;;8.5;63
68628;BME280;55611;48.602;9.490;2023-12-20T11:06:10;97150;;;8.5;63
68628;BME280;55611;48.602;9.490;2023-12-20T11:08:41;97140;;;8.5;63
68628;BME280;55611;48.602;9.490;2023-12-20T11:11:14;97140;;;8.6;63
68628;BME280;55611;48.602;9.490;2023-12-20T11:16:11;97140;;;8.8;63
68628;BME280;55611;48.602;9.490;2023-12-20T11:18:44;97140;;;8.7;63
68628;BME280;55611;48.602;9.490;2023-12-20T11:21:13;97130;;;8.8;63
68628;BME280;55611;48.602;9.490;2023-12-20T11:23:44;97140;;;8.7;63
68628;BME280;55611;48.602;9.490;2023-12-20T11:26:16;97130;;;8.7;63
68628;BME280;55611;48.602;9.490;2023-12-20T11:28:45;97140;;;8.8;63
68628;BME280;55611;48.602;9.490;2023-12-20T11:31:16;97140;;;8.8;63
68628;BME280;55611;48.602;9.490;2023-12-20T11:33:47;97130;;;8.8;63
68628;BME280;55611;48.602;9.490;2023-12-20T11:36:18;97130;;;8.9;63
68628;BME280;55611;48.602;9.490;2023-12-20T11:38:53;97130;;;8.8;63
68628;BME280;55611;48.602;9.490;2023-12-20T11:41:19;97130;;;8.8;63
68628;BME280;55611;48.602;9.490;2023-12-20T11:43:52;97120;;;8.9;63
68628;BME280;55611;48.602;9.490;2023-12-20T11:46:21;97120;;;8.9;63
68628;BME280;55611;48.602;9.490;2023-12-20T11:48:52;97120;;;9;63
68628;BME280;55611;48.602;9.490;2023-12-20T11:51:22;97120;;;8.9;63
68628;BME280;55611;48.602;9.490;2023-12-20T11:53:53;97120;;;8.9;63
68628;BME280;55611;48.602;9.490;2023-12-20T11:56:24;97120;;;8.9;63
68628;BME280;55611;48.602;9.490;2023-12-20T11:58:55;97120;;;9;63
68628;BME280;55611;48.602;9.490;2023-12-20T12:01:25;97120;;;9;63
68628;BME280;55611;48.602;9.490;2023-12-20T12:04:04;97110;;;9;63
68628;BME280;55611;48.602;9.490;2023-12-20T12:06:27;97110;;;8.9;63
68628;BME280;55611;48.602;9.490;2023-12-20T12:08:58;97110;;;9;63
68628;BME280;55611;48.602;9.490;2023-12-20T12:11:29;97110;;;9;63
68628;BME280;55611;48.602;9.490;2023-12-20T12:13:59;97110;;;9.1;63
68628;BME280;55611;48.602;9.490;2023-12-20T12:16:30;97100;;;9.2;63
68628;BME280;55611;48.602;9.490;2023-12-20T12:19:01;97100;;;9.1;63
68628;BME280;55611;48.602;9.490;2023-12-20T12:21:32;97100;;;9.1;63.5
68628;BME280;55611;48.602;9.490;2023-12-20T12:24:06;97100;;;9;63.5
68628;BME280;55611;48.602;9.490;2023-12-20T12:26:33;97100;;;9;63.5
68628;BME280;55611;48.602;9.490;2023-12-20T12:29:06;97100;;;8.9;63.5
68628;BME280;55611;48.602;9.490;2023-12-20T12:31:35;97100;;;8.9;63.5
68628;BME280;55611;48.602;9.490;2023-12-20T12:34:06;97100;;;8.9;63.5
68628;BME280;55611;48.602;9.490;2023-12-20T12:36:36;97100;;;8.9;63.5
68628;BME280;55611;48.602;9.490;2023-12-20T12:39:07;97100;;;8.8;63.5
68628;BME280;55611;48.602;9.490;2023-12-20T12:41:39;97100;;;8.7;63.5
68628;BME280;55611;48.602;9.490;2023-12-20T12:44:09;97100;;;8.7;63.5
68628;BME280;55611;48.602;9.490;2023-12-20T12:46:39;97100;;;8.8;63
68628;BME280;55611;48.602;9.490;2023-12-20T12:49:10;97100;;;8.8;63
68628;BME280;55611;48.602;9.490;2023-12-20T12:51:41;97110;;;8.8;63
68628;BME280;55611;48.602;9.490;2023-12-20T12:54:12;97120;;;8.8;63
68628;BME280;55611;48.602;9.490;2023-12-20T12:56:43;97120;;;8.7;63
68628;BME280;55611;48.602;9.490;2023-12-20T12:59:13;97120;;;8.6;63
68628;BME280;55611;48.602;9.490;2023-12-20T13:01:44;97120;;;8.5;63
68628;BME280;55611;48.602;9.490;2023-12-20T13:04:15;97110;;;8.4;63.5
68628;BME280;55611;48.602;9.490;2023-12-20T13:06:45;97120;;;8.4;63
68628;BME280;55611;48.602;9.490;2023-12-20T13:09:16;97110;;;8.3;63
68628;BME280;55611;48.602;9.490;2023-12-20T13:11:47;97110;;;8.3;63
68628;BME280;55611;48.602;9.490;2023-12-20T13:14:18;97100;;;8.2;63
68628;BME280;55611;48.602;9.490;2023-12-20T13:16:49;97100;;;8.2;63
68628;BME280;55611;48.602;9.490;2023-12-20T13:19:19;97100;;;8.3;63
68628;BME280;55611;48.602;9.490;2023-12-20T13:21:50;97090;;;8.4;63
68628;BME280;55611;48.602;9.490;2023-12-20T13:24:21;97080;;;8.5;63
68628;BME280;55611;48.602;9.490;2023-12-20T13:26:52;97080;;;8.6;63
68628;BME280;55611;48.602;9.490;2023-12-20T13:29:23;97070;;;8.5;63
68628;BME280;55611;48.602;9.490;2023-12-20T13:31:53;97080;;;8.6;63
68628;BME280;55611;48.602;9.490;2023-12-20T13:34:24;97070;;;8.6;63
68628;BME280;55611;48.602;9.490;2023-12-20T13:36:55;97080;;;8.7;63
68628;BME280;55611;48.602;9.490;2023-12-20T13:39:26;97070;;;8.7;63
68628;BME280;55611;48.602;9.490;2023-12-20T13:41:56;97080;;;8.7;63
68628;BME280;55611;48.602;9.490;2023-12-20T13:44:27;97070;;;8.7;63
68628;BME280;55611;48.602;9.490;2023-12-20T13:46:58;97080;;;8.7;63
68628;BME280;55611;48.602;9.490;2023-12-20T13:49:29;97080;;;8.7;63
68628;BME280;55611;48.602;9.490;2023-12-20T13:51:59;97080;;;8.6;63
68628;BME280;55611;48.602;9.490;2023-12-20T13:54:30;97080;;;8.7;63.5
68628;BME280;55611;48.602;9.490;2023-12-20T13:57:01;97080;;;8.7;63.5
68628;BME280;55611;48.602;9.490;2023-12-20T13:59:32;97080;;;8.7;63.5
68628;BME280;55611;48.602;9.490;2023-12-20T14:02:03;97070;;;8.8;63.5
68628;BME280;55611;48.602;9.490;2023-12-20T14:04:33;97070;;;8.8;63
68628;BME280;55611;48.602;9.490;2023-12-20T14:07:04;97070;;;8.8;63
68628;BME280;55611;48.602;9.490;2023-12-20T14:09:35;97080;;;8.8;63.5
68628;BME280;55611;48.602;9.490;2023-12-20T14:12:06;97080;;;8.8;63.5
68628;BME280;55611;48.602;9.490;2023-12-20T14:14:37;97080;;;8.8;63.5
68628;BME280;55611;48.602;9.490;2023-12-20T14:17:07;97080;;;8.8;63
68628;BME280;55611;48.602;9.490;2023-12-20T14:19:38;97080;;;8.7;63.5
68628;BME280;55611;48.602;9.490;2023-12-20T14:22:09;97090;;;8.7;63.5
68628;BME280;55611;48.602;9.490;2023-12-20T14:24:39;97090;;;8.7;63
68628;BME280;55611;48.602;9.490;2023-12-20T14:27:10;97090;;;8.7;63
68628;BME280;55611;48.602;9.490;2023-12-20T14:29:41;97070;;;8.8;63
68628;BME280;55611;48.602;9.490;2023-12-20T14:32:12;97060;;;8.8;63
68628;BME280;55611;48.602;9.490;2023-12-20T14:34:43;97060;;;8.7;63
68628;BME280;55611;48.602;9.490;2023-12-20T14:37:13;97060;;;8.8;63
68628;BME280;55611;48.602;9.490;2023-12-20T14:39:44;97050;;;8.7;63
68628;BME280;55611;48.602;9.490;2023-12-20T14:42:15;97040;;;8.8;63
68628;BME280;55611;48.602;9.490;2023-12-20T14:44:46;97040;;;8.8;63
68628;BME280;55611;48.602;9.490;2023-12-20T14:47:16;97040;;;8.8;63